Time;durP1;ratioP1;P1;durP2;ratioP2;P2;SDS_P1;SDS_P2;PMS_P1;PMS_P2;Temp;Humidity;BMP_temperature;BMP_pressure;BME280_temperature;BME280_humidity;BME280_pressure;Samples;Min_cycle;Max_cycle;Signal;HPM_P1;HPM_P2
2023/07/05 00:01:41;;;;;;;2.80;1.90;;;21.10;97.60;;;;;;5044710;28;20200;-26
2023/07/05 00:04:13;;;;;;;2.58;2.13;;;21.10;97.70;;;;;;5044368;28;20710;-26
2023/07/05 00:06:40;;;;;;;4.05;2.15;;;21.10;97.70;;;;;;5044608;28;20689;-26
2023/07/05 00:09:10;;;;;;;4.25;2.22;;;21.10;97.80;;;;;;5044296;28;20235;-26
2023/07/05 00:11:40;;;;;;;4.07;2.40;;;21.10;97.80;;;;;;5046051;28;20231;-26
2023/07/05 00:14:09;;;;;;;4.93;2.38;;;21.10;97.90;;;;;;5046891;28;20200;-26
2023/07/05 00:16:38;;;;;;;3.22;2.20;;;21.10;97.90;;;;;;5048537;28;20270;-26
2023/07/05 00:19:09;;;;;;;5.28;2.40;;;21.10;97.90;;;;;;5046560;28;20270;-25
2023/07/05 00:21:36;;;;;;;3.85;2.30;;;21.00;98.00;;;;;;5048151;28;20212;-25
2023/07/05 00:24:06;;;;;;;2.40;1.45;;;21.00;98.30;;;;;;5047190;28;20215;-26
2023/07/05 00:26:34;;;;;;;1.50;1.20;;;21.00;98.20;;;;;;5047938;28;20287;-26
2023/07/05 00:29:01;;;;;;;1.23;1.10;;;21.00;98.40;;;;;;5048351;28;20234;-26
2023/07/05 00:31:28;;;;;;;1.23;1.02;;;20.90;97.90;;;;;;5046371;28;20196;-26
2023/07/05 00:33:55;;;;;;;1.38;1.00;;;20.90;97.90;;;;;;5046398;28;20200;-26
2023/07/05 00:36:23;;;;;;;0.90;0.70;;;20.80;97.80;;;;;;5046432;28;20240;-26
2023/07/05 00:38:53;;;;;;;1.90;1.02;;;20.70;97.60;;;;;;5047633;28;20613;-26
2023/07/05 00:41:23;;;;;;;1.67;0.88;;;20.70;97.50;;;;;;5048017;28;20224;-26
2023/07/05 00:43:50;;;;;;;0.88;0.75;;;20.60;97.50;;;;;;5046297;28;20212;-26
2023/07/05 00:46:26;;;;;;;1.08;0.80;;;20.60;97.60;;;;;;5047914;28;20215;-26
2023/07/05 00:49:05;;;;;;;1.55;0.85;;;20.50;97.50;;;;;;5047833;28;20964;-25
2023/07/05 00:51:52;;;;;;;1.70;1.00;;;20.40;97.50;;;;;;5047421;28;20212;-26
2023/07/05 00:54:30;;;;;;;1.23;0.80;;;20.40;97.50;;;;;;5046103;28;20748;-26
2023/07/05 00:57:27;;;;;;;3.20;0.80;;;20.30;97.30;;;;;;5047471;28;20252;-25
2023/07/05 00:59:57;;;;;;;2.83;0.90;;;20.30;97.60;;;;;;5046001;28;20224;-26
2023/07/05 01:02:25;;;;;;;0.90;0.70;;;20.20;97.40;;;;;;5047993;28;20212;-26
2023/07/05 01:04:56;;;;;;;1.42;0.70;;;20.10;97.50;;;;;;5045986;28;20203;-25
2023/07/05 01:07:23;;;;;;;0.70;0.70;;;20.10;97.50;;;;;;5047039;28;20308;-26
2023/07/05 01:09:50;;;;;;;1.35;0.90;;;20.10;97.30;;;;;;5045867;28;20710;-25
2023/07/05 01:12:27;;;;;;;1.00;0.90;;;20.00;97.30;;;;;;5045539;28;20200;-26
2023/07/05 01:15:09;;;;;;;1.88;1.00;;;20.00;97.50;;;;;;5047123;28;20197;-25
2023/07/05 01:17:45;;;;;;;1.58;0.90;;;19.90;97.40;;;;;;5047577;28;20287;-26
2023/07/05 01:20:24;;;;;;;1.92;1.30;;;19.90;97.30;;;;;;5047442;28;20226;-26
2023/07/05 01:22:57;;;;;;;1.67;1.20;;;19.80;97.40;;;;;;5044751;28;20262;-26
2023/07/05 01:25:24;;;;;;;1.77;1.20;;;19.70;97.00;;;;;;5047108;28;20197;-26
2023/07/05 01:28:20;;;;;;;1.75;1.20;;;19.60;97.00;;;;;;5046860;28;20204;-26
2023/07/05 01:31:07;;;;;;;2.75;1.40;;;19.60;96.90;;;;;;5045395;28;20200;-33
2023/07/05 01:33:57;;;;;;;3.47;1.60;;;19.50;97.10;;;;;;5046719;28;20203;-33
2023/07/05 01:36:27;;;;;;;2.30;2.10;;;19.40;96.80;;;;;;5047271;28;20199;-33
2023/07/05 01:38:54;;;;;;;3.38;2.00;;;19.30;96.50;;;;;;5046980;28;20331;-33
2023/07/05 01:41:27;;;;;;;5.90;2.53;;;19.20;96.60;;;;;;5045935;28;20200;-33
2023/07/05 01:43:57;;;;;;;2.92;2.10;;;19.10;96.50;;;;;;5046918;28;20627;-33
2023/07/05 01:46:59;;;;;;;4.03;2.55;;;19.00;96.50;;;;;;5029044;28;20250;-33
2023/07/05 01:49:39;;;;;;;3.22;2.45;;;18.90;96.80;;;;;;5045024;28;20232;-33
2023/07/05 01:52:10;;;;;;;4.88;2.47;;;18.80;96.60;;;;;;5044629;28;20546;-33
2023/07/05 01:55:04;;;;;;;2.83;2.35;;;18.70;96.60;;;;;;5046131;28;20207;-33
2023/07/05 01:58:08;;;;;;;3.38;2.50;;;18.70;97.10;;;;;;5046701;28;20300;-33
2023/07/05 02:00:40;;;;;;;3.75;2.15;;;18.60;96.70;;;;;;5046784;28;20507;-33
2023/07/05 02:03:12;;;;;;;4.38;2.30;;;18.50;96.30;;;;;;5046378;28;20238;-33
2023/07/05 02:05:43;;;;;;;3.17;2.25;;;18.40;96.30;;;;;;5046212;28;20206;-33
2023/07/05 02:08:10;;;;;;;4.63;2.70;;;18.40;96.20;;;;;;5044659;28;20300;-33
2023/07/05 02:10:37;;;;;;;3.35;2.63;;;18.40;96.40;;;;;;5044524;28;20188;-33
2023/07/05 02:13:12;;;;;;;5.88;2.67;;;18.30;96.50;;;;;;5044889;28;20212;-33
2023/07/05 02:15:42;;;;;;;3.47;2.25;;;18.30;96.50;;;;;;5046180;28;20873;-33
2023/07/05 02:18:09;;;;;;;4.13;2.53;;;18.30;96.40;;;;;;5045987;28;20192;-33
2023/07/05 02:20:43;;;;;;;5.10;2.60;;;18.20;96.10;;;;;;5044488;28;20567;-33
2023/07/05 02:23:11;;;;;;;5.53;2.78;;;18.20;96.40;;;;;;5046079;28;20197;-33
2023/07/05 02:25:38;;;;;;;4.45;2.75;;;18.20;96.20;;;;;;5046199;28;20201;-33
2023/07/05 02:28:07;;;;;;;3.70;2.63;;;18.20;96.20;;;;;;5045802;28;20204;-33
2023/07/05 02:30:36;;;;;;;4.80;3.10;;;18.20;96.40;;;;;;5044077;28;20207;-33
2023/07/05 02:33:06;;;;;;;5.13;2.78;;;18.10;96.40;;;;;;5045927;28;20318;-33
2023/07/05 02:35:35;;;;;;;4.43;2.75;;;18.10;96.30;;;;;;5046015;28;20567;-33
2023/07/05 02:38:06;;;;;;;7.40;3.13;;;18.10;96.30;;;;;;5045419;28;20232;-33
2023/07/05 02:40:36;;;;;;;4.93;3.03;;;18.00;96.20;;;;;;5045543;28;20204;-33
2023/07/05 02:43:03;;;;;;;4.35;3.13;;;18.00;96.30;;;;;;5044249;28;20212;-33
2023/07/05 02:45:32;;;;;;;5.25;3.33;;;18.00;96.20;;;;;;5045681;28;20208;-33
2023/07/05 02:48:03;;;;;;;4.53;3.10;;;18.00;96.60;;;;;;5027313;28;20292;-33
2023/07/05 02:50:35;;;;;;;5.10;3.50;;;18.00;96.60;;;;;;5045244;28;20319;-33
2023/07/05 02:53:07;;;;;;;4.90;3.50;;;18.00;96.40;;;;;;5045625;28;20192;-33
2023/07/05 02:55:34;;;;;;;5.13;3.40;;;17.90;96.50;;;;;;5045349;28;20200;-33
2023/07/05 02:58:06;;;;;;;5.68;3.67;;;17.90;96.40;;;;;;5045199;28;20258;-33
2023/07/05 03:00:39;;;;;;;6.53;4.00;;;17.90;96.40;;;;;;5043778;28;20729;-33
2023/07/05 03:03:06;;;;;;;5.13;4.15;;;17.90;96.30;;;;;;5045187;28;20204;-33
2023/07/05 03:05:38;;;;;;;5.38;4.07;;;17.90;96.50;;;;;;5045148;28;20204;-33
2023/07/05 03:08:07;;;;;;;5.97;4.13;;;17.90;96.40;;;;;;5045595;28;20734;-33
2023/07/05 03:10:39;;;;;;;6.90;3.78;;;17.90;96.40;;;;;;5045026;28;20224;-33
2023/07/05 03:13:06;;;;;;;6.30;4.20;;;17.90;96.70;;;;;;5045419;28;20723;-33
2023/07/05 03:15:36;;;;;;;5.63;3.80;;;17.80;96.40;;;;;;5045299;28;20195;-33
2023/07/05 03:18:06;;;;;;;5.45;4.03;;;17.80;96.30;;;;;;5043340;28;20196;-34
2023/07/05 03:20:38;;;;;;;5.45;3.90;;;17.80;96.30;;;;;;5043272;28;20207;-33
2023/07/05 03:23:08;;;;;;;6.05;3.90;;;17.80;96.70;;;;;;5045363;28;20238;-33
2023/07/05 03:25:37;;;;;;;5.28;3.75;;;17.70;96.30;;;;;;5043192;28;20212;-33
2023/07/05 03:28:04;;;;;;;5.75;3.63;;;17.70;96.20;;;;;;5043412;28;20568;-33
2023/07/05 03:30:34;;;;;;;6.63;3.72;;;17.70;96.20;;;;;;5044822;28;20223;-33
2023/07/05 03:33:06;;;;;;;5.55;4.00;;;17.60;96.20;;;;;;5044806;28;20196;-33
2023/07/05 03:35:35;;;;;;;8.63;4.43;;;17.60;96.20;;;;;;5045145;28;20729;-33
2023/07/05 03:38:05;;;;;;;5.63;3.83;;;17.60;96.30;;;;;;5043066;28;20240;-33
2023/07/05 03:40:36;;;;;;;5.57;4.20;;;17.50;96.20;;;;;;5044495;28;20208;-33
2023/07/05 03:43:03;;;;;;;5.78;3.95;;;17.50;96.20;;;;;;5043362;28;20494;-33
2023/07/05 03:45:37;;;;;;;6.88;4.30;;;17.50;96.30;;;;;;5043015;28;20787;-33
2023/07/05 03:48:04;;;;;;;7.47;4.15;;;17.40;96.40;;;;;;5044589;28;20192;-33
2023/07/05 03:50:34;;;;;;;6.93;3.85;;;17.40;96.30;;;;;;5044147;28;20596;-33
2023/07/05 03:53:01;;;;;;;7.15;4.10;;;17.40;96.10;;;;;;5044517;28;20749;-33
2023/07/05 03:55:34;;;;;;;7.18;4.72;;;17.40;96.20;;;;;;5042981;28;20204;-33
2023/07/05 03:58:03;;;;;;;7.13;3.30;;;17.40;96.20;;;;;;5044259;28;20191;-33
2023/07/05 04:00:33;;;;;;;5.47;3.60;;;17.40;96.30;;;;;;5044199;28;20219;-33
2023/07/05 04:03:03;;;;;;;10.00;4.22;;;17.40;96.30;;;;;;5044856;28;20192;-33
2023/07/05 04:05:33;;;;;;;6.43;3.75;;;17.40;96.50;;;;;;5044580;28;20207;-33
2023/07/05 04:08:00;;;;;;;6.03;3.72;;;17.40;96.20;;;;;;5044725;28;20269;-33
2023/07/05 04:10:28;;;;;;;7.85;3.63;;;17.40;96.20;;;;;;5043088;28;20632;-33
2023/07/05 04:12:55;;;;;;;5.82;4.00;;;17.40;96.30;;;;;;5042886;28;20616;-33
2023/07/05 04:15:24;;;;;;;5.82;3.90;;;17.40;96.20;;;;;;5044191;28;20192;-33
2023/07/05 04:17:52;;;;;;;5.38;3.75;;;17.40;96.30;;;;;;5044207;28;20629;-33
2023/07/05 04:20:19;;;;;;;6.72;3.42;;;17.40;96.30;;;;;;5042700;28;20230;-33
2023/07/05 04:22:49;;;;;;;6.38;3.65;;;17.40;96.30;;;;;;5042959;28;20594;-33
2023/07/05 04:25:20;;;;;;;6.82;3.53;;;17.40;96.20;;;;;;5044616;28;20211;-33
2023/07/05 04:27:48;;;;;;;6.45;3.55;;;17.40;96.30;;;;;;5044212;28;20270;-33
2023/07/05 04:30:15;;;;;;;5.07;3.30;;;17.40;96.40;;;;;;5042433;28;20678;-33
2023/07/05 04:32:47;;;;;;;5.68;3.17;;;17.40;96.30;;;;;;5044191;28;20246;-33
2023/07/05 04:35:18;;;;;;;10.63;3.53;;;17.40;96.30;;;;;;5044203;28;20204;-33
2023/07/05 04:37:46;;;;;;;6.82;3.30;;;17.40;96.20;;;;;;5044031;28;20236;-26
2023/07/05 04:40:13;;;;;;;4.57;2.85;;;17.40;96.20;;;;;;5042762;28;20545;-26
2023/07/05 04:42:40;;;;;;;5.32;2.83;;;17.40;96.40;;;;;;5043867;28;20677;-26
2023/07/05 04:45:09;;;;;;;4.40;2.55;;;17.40;96.20;;;;;;5043781;28;20231;-26
2023/07/05 04:47:42;;;;;;;5.57;2.88;;;17.40;96.20;;;;;;5044566;28;20595;-26
2023/07/05 04:50:12;;;;;;;10.88;2.60;;;17.40;96.30;;;;;;5043969;28;20223;-26
2023/07/05 04:52:39;;;;;;;4.90;2.90;;;17.40;96.30;;;;;;5042697;28;20197;-26
2023/07/05 04:55:06;;;;;;;5.05;2.47;;;17.40;96.40;;;;;;5044005;28;20245;-26
2023/07/05 04:57:34;;;;;;;5.45;2.72;;;17.40;96.30;;;;;;5042140;28;20197;-26
2023/07/05 05:00:08;;;;;;;6.90;2.88;;;17.40;96.30;;;;;;5047456;28;20207;-26
2023/07/05 05:02:38;;;;;;;8.73;2.60;;;17.30;96.50;;;;;;5047417;28;20208;-26
2023/07/05 05:05:11;;;;;;;4.60;2.40;;;17.30;96.20;;;;;;5045564;28;20599;-26
2023/07/05 05:07:41;;;;;;;3.70;2.60;;;17.30;96.30;;;;;;5047209;28;20674;-26
2023/07/05 05:10:10;;;;;;;6.88;2.72;;;17.30;96.30;;;;;;5047231;28;20231;-26
2023/07/05 05:12:40;;;;;;;7.40;3.05;;;17.30;96.20;;;;;;5047916;28;20708;-26
2023/07/05 05:15:10;;;;;;;8.60;2.78;;;17.30;96.30;;;;;;5047289;28;20227;-25
2023/07/05 05:17:37;;;;;;;6.30;2.90;;;17.30;96.30;;;;;;5047051;28;20700;-26
2023/07/05 05:20:10;;;;;;;6.18;3.00;;;17.30;96.30;;;;;;5047448;28;20579;-33
2023/07/05 05:22:38;;;;;;;4.60;2.60;;;17.30;96.40;;;;;;5045422;28;20286;-33
2023/07/05 05:25:05;;;;;;;3.38;2.28;;;17.30;96.50;;;;;;5046873;28;20204;-33
2023/07/05 05:27:35;;;;;;;4.60;2.40;;;17.40;96.60;;;;;;5045162;28;20211;-33
2023/07/05 05:30:06;;;;;;;6.20;3.03;;;17.40;96.60;;;;;;5046715;28;20299;-33
2023/07/05 05:32:33;;;;;;;4.63;2.17;;;17.40;96.50;;;;;;5045178;28;20201;-33
2023/07/05 05:35:05;;;;;;;8.02;2.88;;;17.50;96.60;;;;;;5046836;28;20674;-33
2023/07/05 05:37:35;;;;;;;6.40;2.72;;;17.50;96.60;;;;;;5046787;28;20255;-33
2023/07/05 05:40:06;;;;;;;5.57;2.70;;;17.50;96.60;;;;;;5046865;28;20204;-33
2023/07/05 05:42:41;;;;;;;9.13;3.35;;;17.60;96.80;;;;;;5046513;28;20243;-34
2023/07/05 05:45:08;;;;;;;7.88;3.00;;;17.60;96.80;;;;;;5046654;28;20204;-33
2023/07/05 05:47:38;;;;;;;5.55;2.78;;;17.50;96.90;;;;;;5046379;28;20212;-33
2023/07/05 05:50:08;;;;;;;4.72;2.85;;;17.50;97.00;;;;;;5046388;28;20642;-33
2023/07/05 05:52:37;;;;;;;8.20;3.22;;;17.50;96.70;;;;;;5046534;28;20769;-33
2023/07/05 05:55:05;;;;;;;6.18;2.92;;;17.50;96.70;;;;;;5044863;28;20204;-33
2023/07/05 05:57:35;;;;;;;5.50;2.20;;;17.50;96.70;;;;;;5046160;28;20295;-33
2023/07/05 06:00:09;;;;;;;7.95;2.30;;;17.50;96.70;;;;;;5044680;28;20295;-33
2023/07/05 06:02:39;;;;;;;3.88;2.20;;;17.50;96.70;;;;;;5046231;28;20205;-33
2023/07/05 06:05:10;;;;;;;5.13;2.15;;;17.50;96.60;;;;;;5046287;28;20640;-33
2023/07/05 06:07:42;;;;;;;5.40;2.10;;;17.50;96.70;;;;;;5046395;28;20200;-33
2023/07/05 06:10:10;;;;;;;5.22;1.77;;;17.60;96.60;;;;;;5043770;28;20220;-33
2023/07/05 06:12:43;;;;;;;3.65;1.63;;;17.60;96.70;;;;;;5046209;28;20216;-33
2023/07/05 06:15:15;;;;;;;4.20;1.70;;;17.60;96.70;;;;;;5044641;28;20251;-33
2023/07/05 06:17:44;;;;;;;4.22;1.95;;;17.60;96.60;;;;;;5045914;28;20606;-33
2023/07/05 06:20:17;;;;;;;5.53;2.80;;;17.70;96.80;;;;;;5046444;28;20312;-33
2023/07/05 06:22:47;;;;;;;3.97;2.40;;;17.70;96.90;;;;;;5046095;28;20215;-33
2023/07/05 06:25:14;;;;;;;6.05;2.78;;;17.70;96.80;;;;;;5044200;28;20224;-33
2023/07/05 06:27:41;;;;;;;4.50;2.28;;;17.80;97.00;;;;;;5044016;28;20274;-33
2023/07/05 06:30:09;;;;;;;4.80;2.35;;;17.80;96.90;;;;;;5045737;28;20705;-33
2023/07/05 06:32:39;;;;;;;7.90;2.35;;;17.80;97.00;;;;;;5044382;28;20215;-33
2023/07/05 06:35:09;;;;;;;5.43;2.28;;;17.80;97.10;;;;;;5045256;28;20220;-33
2023/07/05 06:37:36;;;;;;;4.07;2.20;;;17.80;96.80;;;;;;5044120;28;20236;-33
2023/07/05 06:40:07;;;;;;;5.28;2.70;;;17.80;96.70;;;;;;5046512;28;20224;-33
2023/07/05 06:42:34;;;;;;;4.10;1.63;;;17.80;96.80;;;;;;5045281;28;20204;-33
2023/07/05 06:45:01;;;;;;;7.88;2.00;;;17.80;96.90;;;;;;5045521;28;20204;-33
2023/07/05 06:47:28;;;;;;;4.53;1.80;;;17.80;97.20;;;;;;5045686;28;20219;-33
2023/07/05 06:49:58;;;;;;;3.67;1.60;;;17.80;96.80;;;;;;5043414;28;20223;-33
2023/07/05 06:52:25;;;;;;;4.38;1.70;;;17.80;96.90;;;;;;5045031;28;20200;-33
2023/07/05 06:54:57;;;;;;;5.15;2.25;;;17.80;96.90;;;;;;5043381;28;20212;-33
2023/07/05 06:57:27;;;;;;;5.10;1.85;;;17.90;96.90;;;;;;5043619;28;20227;-33
2023/07/05 06:59:54;;;;;;;4.38;1.80;;;17.90;96.90;;;;;;5043213;28;20200;-33
2023/07/05 07:02:21;;;;;;;4.05;1.45;;;17.90;96.80;;;;;;5044772;28;20200;-33
2023/07/05 07:04:49;;;;;;;3.75;1.67;;;17.90;96.80;;;;;;5044194;28;20204;-32
2023/07/05 07:07:16;;;;;;;6.68;1.80;;;18.00;96.90;;;;;;5043377;28;20244;-33
2023/07/05 07:09:49;;;;;;;5.13;1.90;;;18.00;97.00;;;;;;5045058;28;20220;-33
2023/07/05 07:12:17;;;;;;;6.20;1.65;;;18.00;97.10;;;;;;5045408;28;20686;-33
2023/07/05 07:14:44;;;;;;;7.32;2.05;;;18.00;97.00;;;;;;5045044;28;20207;-34
2023/07/05 07:17:11;;;;;;;3.60;1.58;;;18.00;97.10;;;;;;5044951;28;20593;-33
2023/07/05 07:19:40;;;;;;;4.10;1.45;;;18.10;97.00;;;;;;5043144;28;20231;-33
2023/07/05 07:22:15;;;;;;;5.07;1.77;;;18.20;97.00;;;;;;5042315;28;20228;-33
2023/07/05 07:24:42;;;;;;;4.00;1.50;;;18.20;97.00;;;;;;5044566;28;20291;-33
2023/07/05 07:27:12;;;;;;;6.72;1.60;;;18.30;97.10;;;;;;5043127;28;20615;-33
2023/07/05 07:29:40;;;;;;;5.43;1.85;;;18.30;97.10;;;;;;5044385;28;20200;-33
2023/07/05 07:32:07;;;;;;;5.20;1.50;;;18.40;97.20;;;;;;5044484;28;20247;-33
2023/07/05 07:34:38;;;;;;;4.25;1.60;;;18.40;97.20;;;;;;5043046;28;20580;-33
2023/07/05 07:37:05;;;;;;;6.50;1.92;;;18.50;97.30;;;;;;5044365;28;20204;-33
2023/07/05 07:39:34;;;;;;;3.80;1.80;;;18.50;97.30;;;;;;5044492;28;20227;-33
2023/07/05 07:42:03;;;;;;;5.70;1.90;;;18.50;97.30;;;;;;5044907;28;20231;-33
2023/07/05 07:44:33;;;;;;;13.45;3.15;;;18.60;97.40;;;;;;5043458;28;20674;-33
2023/07/05 07:47:01;;;;;;;6.65;2.20;;;18.60;97.30;;;;;;5044171;28;20216;-33
2023/07/05 07:49:28;;;;;;;7.68;2.53;;;18.60;97.30;;;;;;5026079;28;20291;-33
2023/07/05 07:51:58;;;;;;;11.48;3.65;;;18.70;97.30;;;;;;5044631;28;20653;-33
2023/07/05 07:54:28;;;;;;;11.57;3.00;;;18.70;97.30;;;;;;5042444;28;20682;-33
2023/07/05 07:56:56;;;;;;;10.65;3.28;;;18.70;97.30;;;;;;5042894;28;20674;-33
2023/07/05 07:59:26;;;;;;;8.40;2.22;;;18.80;97.30;;;;;;5044184;28;20512;-33
2023/07/05 08:01:57;;;;;;;7.55;2.45;;;18.80;97.20;;;;;;5044373;28;20226;-33
2023/07/05 08:04:28;;;;;;;5.35;1.90;;;18.90;97.30;;;;;;5043001;28;20209;-33
2023/07/05 08:06:55;;;;;;;9.30;2.70;;;18.80;97.20;;;;;;5026683;28;20482;-33
2023/07/05 08:09:28;;;;;;;11.90;2.70;;;18.90;97.40;;;;;;5044232;28;20196;-33
2023/07/05 08:11:56;;;;;;;9.02;2.70;;;18.90;96.90;;;;;;5044413;28;20269;-33
2023/07/05 08:14:23;;;;;;;6.10;2.10;;;18.90;96.80;;;;;;5026064;28;20199;-33
2023/07/05 08:16:53;;;;;;;13.80;3.28;;;18.90;96.90;;;;;;5044206;28;20210;-33
2023/07/05 08:19:20;;;;;;;9.88;2.20;;;18.90;96.90;;;;;;5043904;28;20277;-33
2023/07/05 08:21:49;;;;;;;9.35;2.53;;;18.90;96.90;;;;;;5042122;28;20282;-33
2023/07/05 08:24:18;;;;;;;6.00;2.25;;;18.80;96.80;;;;;;5042680;28;20207;-33
2023/07/05 08:26:51;;;;;;;8.48;1.80;;;18.80;96.70;;;;;;5044404;28;20212;-33
2023/07/05 08:29:21;;;;;;;5.40;1.80;;;18.90;96.60;;;;;;5044702;28;20333;-33
2023/07/05 08:31:53;;;;;;;3.13;1.48;;;18.90;96.70;;;;;;5044735;28;20793;-33
2023/07/05 08:34:21;;;;;;;7.25;2.17;;;18.90;96.80;;;;;;5029947;28;20314;-33
2023/07/05 08:36:51;;;;;;;3.22;1.50;;;19.00;96.70;;;;;;5046329;28;20208;-33
2023/07/05 08:39:19;;;;;;;7.05;1.85;;;19.10;96.70;;;;;;5047680;28;20215;-33
2023/07/05 08:42:12;;;;;;;5.93;1.80;;;19.10;96.70;;;;;;5046619;28;20257;-33
2023/07/05 08:44:50;;;;;;;3.95;1.70;;;19.20;96.70;;;;;;5045097;28;20318;-25
2023/07/05 08:47:24;;;;;;;6.28;1.98;;;19.30;96.80;;;;;;5047777;28;20196;-25
2023/07/05 08:50:17;;;;;;;8.63;2.13;;;19.30;96.80;;;;;;5047692;28;20250;-25
2023/07/05 08:53:02;;;;;;;4.90;1.50;;;19.40;96.70;;;;;;5039563;28;20559;-25
2023/07/05 08:55:46;;;;;;;5.93;1.50;;;19.50;96.80;;;;;;5047568;28;20231;-25
2023/07/05 08:58:22;;;;;;;8.68;2.47;;;19.50;96.80;;;;;;5046367;28;20208;-25
2023/07/05 09:00:57;;;;;;;7.20;1.60;;;19.50;96.80;;;;;;5045915;28;20200;-25
2023/07/05 09:03:29;;;;;;;7.20;1.80;;;19.50;96.90;;;;;;5047326;28;20228;-25
2023/07/05 09:06:22;;;;;;;4.95;1.83;;;19.60;96.70;;;;;;5045776;28;20265;-25
2023/07/05 09:09:11;;;;;;;9.10;1.77;;;19.70;96.80;;;;;;5046528;28;20836;-25
2023/07/05 09:12:21;;;;;;;7.47;1.98;;;19.70;96.60;;;;;;5045150;28;20655;-25
2023/07/05 09:14:57;;;;;;;6.28;1.65;;;19.70;96.60;;;;;;5045924;28;20217;-25
2023/07/05 09:17:48;;;;;;;9.05;1.75;;;19.70;96.80;;;;;;5046960;28;20192;-25
2023/07/05 09:20:51;;;;;;;8.27;1.98;;;19.80;96.20;;;;;;5046927;28;20582;-25
2023/07/05 09:23:30;;;;;;;5.68;1.80;;;19.90;96.50;;;;;;5047246;28;20200;-25
2023/07/05 09:26:10;;;;;;;6.60;1.92;;;20.00;96.70;;;;;;5045912;28;20204;-33
2023/07/05 09:28:50;;;;;;;6.18;1.70;;;20.00;96.80;;;;;;5045241;28;20242;-33
2023/07/05 09:31:18;;;;;;;5.15;1.70;;;20.10;96.70;;;;;;5047119;28;20228;-34
2023/07/05 09:33:51;;;;;;;5.20;1.75;;;20.10;96.60;;;;;;5045598;28;20642;-33
2023/07/05 09:36:23;;;;;;;4.65;1.25;;;20.20;96.70;;;;;;5045289;28;20686;-33
2023/07/05 09:39:02;;;;;;;5.25;1.77;;;20.30;96.70;;;;;;5046354;28;20236;-33
2023/07/05 09:41:46;;;;;;;5.72;2.05;;;20.30;96.60;;;;;;5046566;28;20208;-33
2023/07/05 09:44:19;;;;;;;8.05;1.95;;;20.30;96.40;;;;;;5045959;28;20204;-33
2023/07/05 09:46:51;;;;;;;6.50;1.88;;;20.30;96.30;;;;;;5046528;28;20208;-33
2023/07/05 09:49:21;;;;;;;5.32;1.60;;;20.30;96.50;;;;;;5046721;28;20200;-33
2023/07/05 09:51:55;;;;;;;3.75;1.67;;;20.40;96.60;;;;;;5046691;28;20238;-34
2023/07/05 09:54:31;;;;;;;6.35;1.80;;;20.50;96.70;;;;;;5046279;28;20195;-33
2023/07/05 09:57:09;;;;;;;7.88;1.83;;;20.50;96.30;;;;;;5044687;28;20207;-33
2023/07/05 09:59:37;;;;;;;7.18;1.73;;;20.50;96.50;;;;;;5045870;28;20230;-33
2023/07/05 10:02:17;;;;;;;5.60;1.75;;;20.60;96.70;;;;;;5046099;28;20212;-33
2023/07/05 10:04:58;;;;;;;7.78;2.00;;;20.60;96.30;;;;;;5046386;28;20195;-33
2023/07/05 10:07:32;;;;;;;5.28;1.65;;;20.60;96.50;;;;;;5044786;28;20230;-33
2023/07/05 10:10:14;;;;;;;4.40;1.75;;;20.70;96.60;;;;;;5045948;28;20572;-33
2023/07/05 10:12:43;;;;;;;5.10;1.90;;;20.80;96.50;;;;;;5045828;28;20211;-33
2023/07/05 10:15:21;;;;;;;10.70;2.33;;;20.80;96.40;;;;;;5046094;28;20196;-33
2023/07/05 10:17:53;;;;;;;7.90;2.08;;;20.90;96.80;;;;;;5046366;28;20673;-33
2023/07/05 10:20:32;;;;;;;9.93;1.75;;;20.90;96.40;;;;;;5044441;28;20701;-33
2023/07/05 10:23:17;;;;;;;5.82;1.70;;;20.90;96.50;;;;;;5044611;28;20200;-34
2023/07/05 10:25:46;;;;;;;5.07;2.03;;;20.90;96.40;;;;;;5046031;28;20199;-34
2023/07/05 10:28:16;;;;;;;4.63;2.30;;;20.90;96.50;;;;;;5045519;28;20200;-33
2023/07/05 10:30:59;;;;;;;11.50;3.05;;;21.00;96.60;;;;;;5045487;28;20685;-33
2023/07/05 10:33:31;;;;;;;5.93;2.25;;;21.10;96.20;;;;;;5044082;28;20204;-33
2023/07/05 10:36:08;;;;;;;6.00;2.00;;;21.10;96.50;;;;;;5044100;28;20200;-33
2023/07/05 10:38:44;;;;;;;9.73;2.10;;;21.20;96.60;;;;;;5045433;28;20663;-33
2023/07/05 10:41:20;;;;;;;4.65;1.60;;;21.30;95.90;;;;;;5045391;28;20296;-33
2023/07/05 10:44:04;;;;;;;4.63;2.00;;;21.20;95.90;;;;;;5045218;28;20662;-33
2023/07/05 10:46:35;;;;;;;5.07;1.95;;;21.20;95.50;;;;;;5044863;28;20235;-33
2023/07/05 10:49:11;;;;;;;9.20;2.05;;;21.20;95.80;;;;;;5045289;28;20295;-34
2023/07/05 10:52:03;;;;;;;5.22;1.80;;;21.30;95.90;;;;;;5043282;28;20458;-34
2023/07/05 10:54:44;;;;;;;5.88;1.60;;;21.40;95.90;;;;;;5045162;28;20519;-33
2023/07/05 10:57:17;;;;;;;6.90;1.65;;;21.50;96.20;;;;;;5044151;28;20196;-33
2023/07/05 10:59:58;;;;;;;6.40;1.98;;;21.50;96.00;;;;;;5045021;28;20196;-33
2023/07/05 11:02:58;;;;;;;6.25;1.90;;;21.60;96.30;;;;;;5043556;28;20580;-33
2023/07/05 11:05:48;;;;;;;3.47;2.10;;;21.70;96.50;;;;;;5044330;28;20335;-33
2023/07/05 11:08:26;;;;;;;4.35;1.83;;;21.80;96.60;;;;;;5043786;28;20208;-33
2023/07/05 11:10:56;;;;;;;6.68;2.20;;;21.90;96.50;;;;;;5045315;28;20290;-34
2023/07/05 11:13:31;;;;;;;6.22;1.80;;;21.90;96.40;;;;;;5044899;28;20287;-34
2023/07/05 11:16:02;;;;;;;7.43;2.72;;;21.90;96.20;;;;;;5044833;28;20238;-34
2023/07/05 11:18:36;;;;;;;3.65;1.70;;;21.90;96.30;;;;;;5044868;28;20283;-34
2023/07/05 11:21:03;;;;;;;5.78;1.83;;;21.90;96.20;;;;;;5044761;28;20192;-34
2023/07/05 11:23:46;;;;;;;9.57;2.00;;;21.80;96.10;;;;;;5044444;28;20665;-34
2023/07/05 11:26:33;;;;;;;6.60;1.75;;;21.80;96.30;;;;;;5044897;28;20204;-34
2023/07/05 11:29:24;;;;;;;7.65;2.10;;;21.80;96.10;;;;;;5043148;28;20212;-26
2023/07/05 11:31:54;;;;;;;5.57;1.90;;;21.70;95.90;;;;;;5044893;28;20228;-27
2023/07/05 11:34:21;;;;;;;7.68;1.70;;;21.70;96.00;;;;;;5044326;28;20196;-26
2023/07/05 11:37:01;;;;;;;4.00;1.60;;;21.70;96.00;;;;;;5042883;28;20200;-26
2023/07/05 11:39:32;;;;;;;3.50;1.60;;;21.80;96.20;;;;;;5044538;28;20682;-26
2023/07/05 11:42:17;;;;;;;4.53;1.60;;;21.80;96.30;;;;;;5044670;28;20280;-26
2023/07/05 11:45:03;;;;;;;5.55;1.65;;;21.90;96.20;;;;;;5044699;28;20207;-26
2023/07/05 11:47:34;;;;;;;6.80;1.83;;;21.90;96.20;;;;;;5044149;28;20212;-26
2023/07/05 11:50:06;;;;;;;3.65;1.85;;;21.90;96.30;;;;;;5044328;28;20203;-26
2023/07/05 11:52:36;;;;;;;5.35;1.95;;;22.00;96.40;;;;;;5044095;28;20674;-26
2023/07/05 11:55:09;;;;;;;7.70;1.63;;;22.00;96.40;;;;;;5044855;28;20566;-26
2023/07/05 11:58:08;;;;;;;8.75;1.75;;;22.00;96.50;;;;;;5044177;28;20256;-26
2023/07/05 12:00:44;;;;;;;7.40;1.80;;;22.10;96.60;;;;;;5044644;28;20608;-26
2023/07/05 12:03:25;;;;;;;4.28;1.67;;;22.20;96.60;;;;;;5044214;28;20555;-26
2023/07/05 12:05:59;;;;;;;4.78;1.80;;;22.30;96.70;;;;;;5042732;28;20692;-26
2023/07/05 12:09:00;;;;;;;5.25;1.70;;;22.30;96.60;;;;;;5047269;28;20631;-26
2023/07/05 12:11:37;;;;;;;6.95;2.20;;;22.30;96.60;;;;;;5046765;28;20224;-26
2023/07/05 12:14:16;;;;;;;9.65;1.92;;;22.40;96.60;;;;;;5031334;28;20200;-26
2023/07/05 12:16:47;;;;;;;4.13;1.52;;;22.40;96.50;;;;;;5048472;28;20196;-26
2023/07/05 12:19:34;;;;;;;5.13;2.03;;;22.40;96.80;;;;;;5047111;28;20652;-26
2023/07/05 12:22:06;;;;;;;5.07;1.90;;;22.40;96.80;;;;;;5048056;28;20200;-26
2023/07/05 12:24:48;;;;;;;7.95;1.95;;;22.40;96.70;;;;;;5048135;28;20203;-26
2023/07/05 12:27:27;;;;;;;4.70;1.42;;;22.50;96.70;;;;;;5047639;28;20681;-26
2023/07/05 12:29:56;;;;;;;4.10;1.85;;;22.50;96.60;;;;;;5047943;28;20212;-26
2023/07/05 12:32:26;;;;;;;2.28;1.30;;;22.50;96.60;;;;;;5048111;28;20228;-26
2023/07/05 12:35:06;;;;;;;4.97;1.55;;;22.50;96.70;;;;;;5046471;28;20206;-26
2023/07/05 12:37:38;;;;;;;4.28;1.48;;;22.50;96.70;;;;;;5046250;28;20286;-26
2023/07/05 12:40:17;;;;;;;7.93;2.20;;;22.50;96.70;;;;;;5047478;28;20207;-26
2023/07/05 12:42:59;;;;;;;3.83;2.05;;;22.50;96.70;;;;;;5048049;28;20207;-26
2023/07/05 12:45:34;;;;;;;4.70;1.70;;;22.60;96.60;;;;;;5046104;28;20208;-26
2023/07/05 12:48:16;;;;;;;4.40;2.00;;;22.60;96.90;;;;;;5047417;28;20204;-26
2023/07/05 12:50:44;;;;;;;6.63;2.00;;;22.70;97.00;;;;;;5047305;28;20262;-25
2023/07/05 12:53:22;;;;;;;3.95;2.00;;;22.70;96.90;;;;;;5047834;28;20232;-26
2023/07/05 12:56:00;;;;;;;9.07;2.08;;;22.80;97.00;;;;;;5047192;28;20200;-26
2023/07/05 12:58:28;;;;;;;4.75;1.95;;;22.90;97.10;;;;;;5045950;28;20199;-26
2023/07/05 13:00:57;;;;;;;5.95;2.00;;;22.90;97.00;;;;;;5045902;28;20207;-26
2023/07/05 13:03:31;;;;;;;5.05;2.15;;;22.90;97.00;;;;;;5045730;28;20234;-25
2023/07/05 13:06:03;;;;;;;3.38;1.80;;;23.00;97.10;;;;;;5045459;28;20206;-25
2023/07/05 13:08:31;;;;;;;5.78;2.00;;;23.10;97.20;;;;;;5047213;28;20640;-25
2023/07/05 13:10:58;;;;;;;7.45;1.88;;;23.10;97.10;;;;;;5047346;28;20573;-25
2023/07/05 13:13:31;;;;;;;8.93;2.10;;;23.10;97.00;;;;;;5046981;28;20835;-26
2023/07/05 13:16:19;;;;;;;4.00;1.90;;;23.20;96.90;;;;;;5047142;28;20596;-25